Time;durP1;ratioP1;P1;durP2;ratioP2;P2;SDS_P1;SDS_P2;PMS_P1;PMS_P2;Temp;Humidity;BMP_temperature;BMP_pressure;BME280_temperature;BME280_humidity;BME280_pressure;Samples;Min_cycle;Max_cycle;Signal;HPM_P1;HPM_P2
2023/03/21 00:01:16;;;;;;;14.13;13.73;;;22.00;51.70;;;;;;5011531;28;20486;-62
2023/03/21 00:03:43;;;;;;;13.87;13.47;;;22.00;51.30;;;;;;5005825;28;20482;-63
2023/03/21 00:06:12;;;;;;;14.33;13.83;;;21.90;51.30;;;;;;4992232;28;20536;-63
2023/03/21 00:08:39;;;;;;;13.40;12.80;;;21.90;51.40;;;;;;5000894;28;20530;-63
2023/03/21 00:11:08;;;;;;;12.87;12.47;;;21.90;51.40;;;;;;5003806;28;20453;-63
2023/03/21 00:13:37;;;;;;;13.90;13.23;;;21.80;51.40;;;;;;4992514;28;20538;-64
2023/03/21 00:16:05;;;;;;;13.63;13.13;;;21.80;51.50;;;;;;4992116;28;20510;-63
2023/03/21 00:18:35;;;;;;;13.70;13.07;;;21.80;51.60;;;;;;5000849;28;20507;-63
2023/03/21 00:21:03;;;;;;;14.00;13.50;;;21.80;51.60;;;;;;5011544;28;20454;-63
2023/03/21 00:23:32;;;;;;;13.80;13.30;;;21.80;51.70;;;;;;5011681;28;20537;-63
2023/03/21 00:25:59;;;;;;;12.97;12.50;;;21.80;51.60;;;;;;5011661;28;20489;-63
2023/03/21 00:28:27;;;;;;;14.30;13.80;;;21.70;51.60;;;;;;5005541;28;20446;-63
2023/03/21 00:30:58;;;;;;;14.00;13.50;;;21.70;51.60;;;;;;5011782;28;20477;-63
2023/03/21 00:33:25;;;;;;;12.87;12.47;;;21.70;51.80;;;;;;5011472;28;20442;-61
2023/03/21 00:35:53;;;;;;;13.70;13.20;;;21.60;51.80;;;;;;5011426;28;20513;-62
2023/03/21 00:38:21;;;;;;;13.77;13.37;;;21.60;51.80;;;;;;5003898;28;20482;-63
2023/03/21 00:40:48;;;;;;;13.37;12.87;;;21.60;51.90;;;;;;4992053;28;20481;-63
2023/03/21 00:43:18;;;;;;;12.93;12.53;;;21.60;51.90;;;;;;4992143;28;20631;-62
2023/03/21 00:45:45;;;;;;;13.83;13.33;;;21.60;51.90;;;;;;4991921;28;20506;-63
2023/03/21 00:48:12;;;;;;;13.27;12.77;;;21.50;51.90;;;;;;4997035;28;20458;-63
2023/03/21 00:50:41;;;;;;;13.00;12.60;;;21.50;51.90;;;;;;5006725;28;20486;-63
2023/03/21 00:53:09;;;;;;;12.93;12.53;;;21.50;52.00;;;;;;4991872;28;20880;-63
2023/03/21 00:55:37;;;;;;;13.03;12.53;;;21.50;52.10;;;;;;4991602;28;20514;-63
2023/03/21 00:58:04;;;;;;;13.20;12.60;;;21.40;52.10;;;;;;4996801;28;20458;-63
2023/03/21 01:00:32;;;;;;;12.93;12.53;;;21.40;52.20;;;;;;4998348;28;20479;-62
2023/03/21 01:03:04;;;;;;;13.00;12.60;;;21.40;52.20;;;;;;4992984;28;20482;-63
2023/03/21 01:08:17;;;;;;;12.80;12.30;;;21.40;52.30;;;;;;4994452;28;20438;-63
2023/03/21 01:10:47;;;;;;;13.07;12.57;;;21.30;52.30;;;;;;5011290;28;20457;-63
2023/03/21 01:13:16;;;;;;;13.43;13.00;;;21.30;52.50;;;;;;5010550;28;20446;-63
2023/03/21 01:15:44;;;;;;;13.10;12.63;;;21.30;52.50;;;;;;4994656;28;20573;-63
2023/03/21 01:18:11;;;;;;;13.60;13.00;;;21.20;52.50;;;;;;4999008;28;20478;-63
2023/03/21 01:20:40;;;;;;;15.97;15.47;;;21.20;52.60;;;;;;4995452;28;20474;-61
2023/03/21 01:23:08;;;;;;;13.50;13.10;;;21.20;52.60;;;;;;4995256;28;20478;-63
2023/03/21 01:25:36;;;;;;;13.40;12.80;;;21.20;52.60;;;;;;4995176;28;20486;-63
2023/03/21 01:28:03;;;;;;;13.20;12.60;;;21.20;52.70;;;;;;4998356;28;20529;-61
2023/03/21 01:30:31;;;;;;;13.10;12.60;;;21.20;52.70;;;;;;5003518;28;20483;-63
2023/03/21 01:32:58;;;;;;;13.53;12.77;;;21.20;52.80;;;;;;4995146;28;20518;-63
2023/03/21 01:35:25;;;;;;;14.40;13.90;;;21.20;52.80;;;;;;4994946;28;20478;-63
2023/03/21 01:37:52;;;;;;;13.00;12.60;;;21.20;52.80;;;;;;4996354;28;20904;-61
2023/03/21 01:40:21;;;;;;;13.50;13.10;;;21.10;52.70;;;;;;5014690;28;20537;-63
2023/03/21 01:42:50;;;;;;;13.33;12.93;;;21.10;52.70;;;;;;5014000;28;20477;-64
2023/03/21 01:45:54;;;;;;;13.50;13.10;;;21.10;52.70;;;;;;5014425;28;20461;-63
2023/03/21 01:48:23;;;;;;;13.80;13.30;;;21.10;52.70;;;;;;5010366;28;20946;-63
2023/03/21 01:50:51;;;;;;;13.37;12.83;;;21.10;52.70;;;;;;5014245;28;20477;-61
2023/03/21 01:53:20;;;;;;;13.00;12.60;;;21.10;52.70;;;;;;5010705;28;20545;-63
2023/03/21 01:58:18;;;;;;;13.23;12.73;;;21.10;52.70;;;;;;4993284;28;20521;-63
2023/03/21 02:00:47;;;;;;;12.80;12.40;;;21.10;52.60;;;;;;4994630;28;20439;-63
2023/03/21 02:03:15;;;;;;;12.83;12.50;;;21.10;52.60;;;;;;4997273;28;20497;-64
2023/03/21 02:05:51;;;;;;;12.80;12.40;;;21.10;52.70;;;;;;4994578;28;20450;-63
2023/03/21 02:08:19;;;;;;;12.80;12.50;;;21.10;52.70;;;;;;4976959;28;20471;-64
2023/03/21 02:10:48;;;;;;;13.40;13.00;;;21.10;52.80;;;;;;4993576;28;20964;-64
2023/03/21 02:13:17;;;;;;;13.47;12.97;;;21.10;52.80;;;;;;4994027;28;20537;-64
2023/03/21 02:15:53;;;;;;;12.80;12.40;;;21.10;52.70;;;;;;4998528;28;20518;-64
2023/03/21 02:18:26;;;;;;;12.70;12.30;;;21.10;52.80;;;;;;5001386;28;20852;-64
2023/03/21 02:21:26;;;;;;;15.10;14.63;;;21.10;52.70;;;;;;4999216;28;20479;-63
2023/03/21 02:24:27;;;;;;;13.07;12.67;;;21.10;52.80;;;;;;4993987;28;20482;-63
2023/03/21 02:27:13;;;;;;;13.00;12.50;;;21.10;52.80;;;;;;4993206;28;20490;-62
2023/03/21 02:30:19;;;;;;;13.00;12.60;;;21.10;52.90;;;;;;4978464;28;20541;-63
2023/03/21 02:33:09;;;;;;;13.00;12.60;;;21.00;52.90;;;;;;4971516;28;20451;-62
2023/03/21 02:35:53;;;;;;;12.60;12.30;;;21.00;53.00;;;;;;4974545;28;20532;-62
2023/03/21 02:38:29;;;;;;;13.00;12.60;;;21.00;52.90;;;;;;4978079;28;20799;-63
2023/03/21 02:41:04;;;;;;;12.70;12.40;;;21.00;53.00;;;;;;4993878;28;20454;-62
2023/03/21 02:43:38;;;;;;;13.43;13.03;;;21.00;53.00;;;;;;4993163;28;20861;-63
2023/03/21 02:46:11;;;;;;;13.13;12.70;;;21.00;53.10;;;;;;4993709;28;20853;-63
2023/03/21 02:48:43;;;;;;;13.80;13.30;;;21.00;53.10;;;;;;4986824;28;20534;-63
2023/03/21 02:51:14;;;;;;;13.40;12.90;;;21.00;53.20;;;;;;4976984;28;20542;-61
2023/03/21 02:53:45;;;;;;;12.70;12.30;;;20.90;53.10;;;;;;4974178;28;20973;-63
2023/03/21 02:56:13;;;;;;;13.20;12.80;;;20.90;53.10;;;;;;4973901;28;20487;-63
2023/03/21 02:58:42;;;;;;;13.40;12.90;;;20.90;53.70;;;;;;4979817;28;20522;-63
2023/03/21 03:01:09;;;;;;;13.03;12.73;;;20.90;53.20;;;;;;4986159;28;20535;-63
2023/03/21 03:03:38;;;;;;;13.17;12.77;;;20.90;53.20;;;;;;4980573;28;20820;-63
2023/03/21 03:06:15;;;;;;;13.10;12.60;;;20.90;53.20;;;;;;4993442;28;20494;-63
2023/03/21 03:09:03;;;;;;;13.47;13.07;;;20.90;53.30;;;;;;4986318;28;20891;-63
2023/03/21 03:11:33;;;;;;;12.30;12.00;;;20.90;53.20;;;;;;4974124;28;20510;-63
2023/03/21 03:14:25;;;;;;;12.10;11.80;;;20.90;53.30;;;;;;4986007;28;20887;-62
2023/03/21 03:17:03;;;;;;;12.43;12.13;;;20.80;53.30;;;;;;4992688;28;20582;-62
2023/03/21 03:19:35;;;;;;;12.90;12.60;;;20.80;53.30;;;;;;4990735;28;20505;-63
2023/03/21 03:22:07;;;;;;;13.13;12.77;;;20.90;53.40;;;;;;4992916;28;20529;-63
2023/03/21 03:24:41;;;;;;;13.43;12.93;;;20.90;53.40;;;;;;4992749;28;21038;-63
2023/03/21 03:27:10;;;;;;;13.07;12.57;;;20.80;53.40;;;;;;4992550;28;20505;-63
2023/03/21 03:29:41;;;;;;;12.90;12.50;;;20.80;53.40;;;;;;4979503;28;20890;-62
2023/03/21 03:32:12;;;;;;;12.77;12.37;;;20.80;53.40;;;;;;4990517;28;20873;-63
2023/03/21 03:34:43;;;;;;;12.97;12.50;;;20.80;53.50;;;;;;4991046;28;20454;-61
2023/03/21 03:37:14;;;;;;;13.30;12.90;;;20.80;53.50;;;;;;4972803;28;20583;-61
2023/03/21 03:39:49;;;;;;;13.10;12.70;;;20.80;53.60;;;;;;4985807;28;20447;-63
2023/03/21 03:42:21;;;;;;;13.03;12.57;;;20.80;53.60;;;;;;4992742;28;20538;-62
2023/03/21 03:44:48;;;;;;;13.60;13.20;;;20.80;53.60;;;;;;4973848;28;20543;-63
2023/03/21 03:47:22;;;;;;;12.83;12.43;;;20.80;53.60;;;;;;4973205;28;20554;-63
2023/03/21 03:49:56;;;;;;;13.13;12.73;;;20.80;53.70;;;;;;4977487;28;20547;-63
2023/03/21 03:52:28;;;;;;;13.10;12.70;;;20.80;53.60;;;;;;4974315;28;20472;-63
2023/03/21 03:54:57;;;;;;;12.70;12.40;;;20.80;53.60;;;;;;4982999;28;20873;-63
2023/03/21 03:57:26;;;;;;;12.70;12.20;;;20.80;53.60;;;;;;4988960;28;20578;-63
2023/03/21 03:59:53;;;;;;;12.57;12.17;;;20.80;53.60;;;;;;4987438;28;20490;-62
2023/03/21 04:02:20;;;;;;;12.27;11.97;;;20.80;53.60;;;;;;4991539;28;20890;-63
2023/03/21 04:04:51;;;;;;;12.23;11.90;;;20.80;53.60;;;;;;4987567;28;20444;-63
2023/03/21 04:07:18;;;;;;;12.60;12.20;;;20.80;53.60;;;;;;4972938;28;20467;-63
2023/03/21 04:09:45;;;;;;;11.70;11.40;;;20.80;53.70;;;;;;4976647;28;20496;-63
2023/03/21 04:12:14;;;;;;;12.13;11.83;;;20.80;53.70;;;;;;4983967;28;20574;-63
2023/03/21 04:14:41;;;;;;;13.03;12.73;;;20.80;53.70;;;;;;4989772;28;20481;-63
2023/03/21 04:17:07;;;;;;;12.20;11.80;;;20.80;53.70;;;;;;4972615;28;20579;-63
2023/03/21 04:19:35;;;;;;;12.30;11.90;;;20.80;53.70;;;;;;4972821;28;20535;-63
2023/03/21 04:22:01;;;;;;;13.57;13.17;;;20.80;53.70;;;;;;4973043;28;20523;-63
2023/03/21 04:24:32;;;;;;;12.17;11.77;;;20.80;53.70;;;;;;4973379;28;20495;-63
2023/03/21 04:26:59;;;;;;;12.50;12.10;;;20.80;53.70;;;;;;4992347;28;20892;-67
2023/03/21 04:29:28;;;;;;;12.50;12.10;;;20.70;53.70;;;;;;4976776;28;20479;-67
2023/03/21 04:31:55;;;;;;;12.27;11.87;;;20.80;53.80;;;;;;4972639;28;20450;-67
2023/03/21 04:34:22;;;;;;;12.10;11.80;;;20.70;53.90;;;;;;4973751;28;20486;-67
2023/03/21 04:36:49;;;;;;;12.77;12.37;;;20.70;54.10;;;;;;4991211;28;21018;-67
2023/03/21 04:39:17;;;;;;;12.70;12.30;;;20.70;54.20;;;;;;4980139;28;20909;-67
2023/03/21 04:41:45;;;;;;;11.83;11.53;;;20.70;54.30;;;;;;4972552;28;20531;-67
2023/03/21 04:44:13;;;;;;;12.40;12.00;;;20.70;54.40;;;;;;4985867;28;20538;-67
2023/03/21 04:46:42;;;;;;;12.53;12.23;;;20.70;54.50;;;;;;4991478;28;20502;-67
2023/03/21 04:49:09;;;;;;;13.37;12.97;;;20.70;54.50;;;;;;4978464;28;20864;-67
2023/03/21 04:51:37;;;;;;;12.03;11.73;;;20.70;54.60;;;;;;4993807;28;20490;-67
2023/03/21 04:54:04;;;;;;;12.40;11.90;;;20.70;54.70;;;;;;4983711;28;20459;-68
2023/03/21 04:56:32;;;;;;;11.90;11.60;;;20.70;54.80;;;;;;4975940;28;21992;-68
2023/03/21 04:59:00;;;;;;;12.30;12.00;;;20.70;54.80;;;;;;4988128;28;20487;-67
2023/03/21 05:01:29;;;;;;;12.67;12.27;;;20.60;54.80;;;;;;4995242;28;20964;-67
2023/03/21 05:03:57;;;;;;;12.30;12.00;;;20.70;55.00;;;;;;4985979;28;20451;-67
2023/03/21 05:06:25;;;;;;;13.10;12.70;;;20.70;55.00;;;;;;4976180;28;21017;-68
2023/03/21 05:08:52;;;;;;;13.10;12.80;;;20.60;55.00;;;;;;4976047;28;20518;-68
2023/03/21 05:11:19;;;;;;;12.43;12.13;;;20.60;55.00;;;;;;4976055;28;20958;-68
2023/03/21 05:13:46;;;;;;;13.03;12.63;;;20.60;55.00;;;;;;4976241;28;20502;-68
2023/03/21 05:16:13;;;;;;;13.10;12.70;;;20.60;55.10;;;;;;4976086;28;20451;-68
2023/03/21 05:18:39;;;;;;;12.60;12.30;;;20.70;55.20;;;;;;4975667;28;20621;-68
2023/03/21 05:21:09;;;;;;;13.00;12.60;;;20.70;55.30;;;;;;4975689;28;20479;-68
2023/03/21 05:23:37;;;;;;;13.00;12.60;;;20.70;55.20;;;;;;4976956;28;20474;-68
2023/03/21 05:26:05;;;;;;;12.77;12.27;;;20.70;55.10;;;;;;4975646;28;20448;-68
2023/03/21 05:28:35;;;;;;;12.50;12.10;;;20.60;55.10;;;;;;4975771;28;20479;-68
2023/03/21 05:31:01;;;;;;;12.80;12.40;;;20.70;55.10;;;;;;4975767;28;20999;-68
2023/03/21 05:33:28;;;;;;;12.70;12.30;;;20.60;55.00;;;;;;4985208;28;20513;-68
2023/03/21 05:35:55;;;;;;;13.23;12.83;;;20.60;54.90;;;;;;4994977;28;20478;-68
2023/03/21 05:38:24;;;;;;;12.47;12.10;;;20.60;54.80;;;;;;4990806;28;20860;-67
2023/03/21 05:40:51;;;;;;;12.50;12.10;;;20.70;55.00;;;;;;4975552;28;20488;-67
2023/03/21 05:43:18;;;;;;;12.63;12.23;;;20.70;55.10;;;;;;4982160;28;20483;-68
2023/03/21 05:45:47;;;;;;;13.20;12.63;;;20.70;55.30;;;;;;4994881;28;20542;-67
2023/03/21 05:48:13;;;;;;;13.93;13.23;;;20.70;55.70;;;;;;4987857;28;20953;-67
2023/03/21 05:50:40;;;;;;;12.97;12.37;;;20.70;56.50;;;;;;4985062;28;20506;-68
2023/03/21 05:53:07;;;;;;;15.40;14.27;;;20.70;57.50;;;;;;4989780;28;20498;-64
2023/03/21 05:55:36;;;;;;;14.33;13.23;;;20.70;59.40;;;;;;4985701;28;20858;-65
2023/03/21 05:58:03;;;;;;;14.53;13.50;;;20.80;59.90;;;;;;4985268;28;20557;-64
2023/03/21 06:00:30;;;;;;;15.23;14.13;;;20.80;61.00;;;;;;4994642;28;20483;-63
2023/03/21 06:02:57;;;;;;;13.80;13.10;;;20.80;60.40;;;;;;4996116;28;20486;-63
2023/03/21 06:05:24;;;;;;;14.20;13.00;;;20.80;60.00;;;;;;4995774;28;20529;-64
2023/03/21 06:07:51;;;;;;;13.33;12.43;;;20.70;59.50;;;;;;4995854;28;20459;-64
2023/03/21 06:10:18;;;;;;;13.13;12.43;;;20.70;59.30;;;;;;4995180;28;20482;-64
2023/03/21 06:12:46;;;;;;;13.17;12.07;;;20.80;59.20;;;;;;4995240;28;20478;-64
2023/03/21 06:15:13;;;;;;;12.03;11.50;;;20.80;58.90;;;;;;4995514;28;20455;-64
2023/03/21 06:17:41;;;;;;;13.10;11.97;;;20.70;58.60;;;;;;4994908;28;20526;-64
2023/03/21 06:20:10;;;;;;;12.87;12.00;;;20.70;58.30;;;;;;4995048;28;20555;-64
2023/03/21 06:22:37;;;;;;;12.20;11.70;;;20.70;58.20;;;;;;4995282;28;20446;-64
2023/03/21 06:25:06;;;;;;;12.20;11.73;;;20.70;57.90;;;;;;4995494;28;20486;-64
2023/03/21 06:27:33;;;;;;;12.83;12.13;;;20.70;57.70;;;;;;4997072;28;20733;-64
2023/03/21 06:30:01;;;;;;;12.80;12.20;;;20.70;57.60;;;;;;4995442;28;20489;-64
2023/03/21 06:32:28;;;;;;;12.63;11.83;;;20.70;57.50;;;;;;4995578;28;20490;-64
2023/03/21 06:34:55;;;;;;;13.37;12.47;;;20.70;57.30;;;;;;4995388;28;20548;-63
2023/03/21 06:37:22;;;;;;;12.20;11.60;;;20.70;57.10;;;;;;4994920;28;20518;-64
2023/03/21 06:39:49;;;;;;;12.27;11.57;;;20.70;57.10;;;;;;4995329;28;20486;-64
2023/03/21 06:42:16;;;;;;;12.97;12.20;;;20.70;56.90;;;;;;4995038;28;20505;-64
2023/03/21 06:44:43;;;;;;;11.97;11.47;;;20.70;56.80;;;;;;4995589;28;20921;-64
2023/03/21 06:47:11;;;;;;;12.57;11.97;;;20.70;56.70;;;;;;4995396;28;20549;-64
2023/03/21 06:49:39;;;;;;;13.33;12.53;;;20.70;56.50;;;;;;4994951;28;20478;-64
2023/03/21 06:52:06;;;;;;;11.57;11.07;;;20.70;56.50;;;;;;4995425;28;20451;-64
2023/03/21 06:54:33;;;;;;;11.90;11.50;;;20.70;56.30;;;;;;4994201;28;20501;-64
2023/03/21 06:57:00;;;;;;;12.27;11.67;;;20.70;56.30;;;;;;4994205;28;20589;-64
2023/03/21 06:59:27;;;;;;;12.50;11.70;;;20.70;56.20;;;;;;4994108;28;20566;-65
2023/03/21 07:01:54;;;;;;;12.33;11.73;;;20.60;56.10;;;;;;4994329;28;20490;-65
2023/03/21 07:04:22;;;;;;;11.77;11.17;;;20.70;56.10;;;;;;4993736;28;20478;-65
2023/03/21 07:06:49;;;;;;;12.77;12.17;;;20.70;56.00;;;;;;4993587;28;20893;-65
2023/03/21 07:09:17;;;;;;;12.07;11.40;;;20.70;55.90;;;;;;4993705;28;20478;-64
2023/03/21 07:11:44;;;;;;;12.00;11.40;;;20.70;55.90;;;;;;4993515;28;20451;-65
2023/03/21 07:14:11;;;;;;;11.30;11.00;;;20.60;55.70;;;;;;4993747;28;20879;-65
2023/03/21 07:16:38;;;;;;;12.40;11.80;;;20.60;55.60;;;;;;4993850;28;20506;-65
2023/03/21 07:19:06;;;;;;;11.40;10.90;;;20.60;55.60;;;;;;4993388;28;20519;-65
2023/03/21 07:21:34;;;;;;;12.10;11.60;;;20.60;55.50;;;;;;4993540;28;20447;-64
2023/03/21 07:24:01;;;;;;;12.37;11.80;;;20.60;55.50;;;;;;4993387;28;20485;-64
2023/03/21 07:26:28;;;;;;;12.07;11.47;;;20.60;55.40;;;;;;4993117;28;20510;-65
2023/03/21 07:28:55;;;;;;;11.93;11.43;;;20.60;55.30;;;;;;4993193;28;20478;-64
2023/03/21 07:31:24;;;;;;;11.90;11.23;;;20.60;55.30;;;;;;4993626;28;20489;-65
2023/03/21 07:33:51;;;;;;;11.60;11.20;;;20.60;55.20;;;;;;4993211;28;20446;-63
2023/03/21 07:36:20;;;;;;;11.40;10.80;;;20.60;55.20;;;;;;4993073;28;20510;-65
2023/03/21 07:38:48;;;;;;;12.20;11.80;;;20.60;55.20;;;;;;4993191;28;20487;-65
2023/03/21 07:41:15;;;;;;;11.13;10.67;;;20.60;55.20;;;;;;4993249;28;20501;-63
2023/03/21 07:43:42;;;;;;;11.30;10.93;;;20.60;55.20;;;;;;4993048;28;20522;-64
2023/03/21 07:46:09;;;;;;;10.90;10.60;;;20.60;55.10;;;;;;4992964;28;20509;-65
2023/03/21 07:48:36;;;;;;;12.20;11.70;;;20.60;55.10;;;;;;4992891;28;20446;-64
2023/03/21 07:51:03;;;;;;;12.50;12.10;;;20.60;55.10;;;;;;4992910;28;20451;-65
2023/03/21 07:53:29;;;;;;;11.70;11.20;;;20.60;55.00;;;;;;4993246;28;20872;-65
2023/03/21 07:55:58;;;;;;;11.10;10.70;;;20.60;55.00;;;;;;4992691;28;20450;-64
2023/03/21 07:58:25;;;;;;;11.50;11.20;;;20.60;54.90;;;;;;5038121;22;20596;-65
2023/03/21 08:00:52;;;;;;;11.50;11.20;;;20.60;54.90;;;;;;5033970;28;20444;-65
2023/03/21 08:03:20;;;;;;;11.40;11.00;;;20.60;54.80;;;;;;5033868;28;20511;-65
2023/03/21 08:05:47;;;;;;;12.20;11.60;;;20.70;54.80;;;;;;5034011;28;20468;-65
2023/03/21 08:08:14;;;;;;;12.00;11.60;;;20.60;54.70;;;;;;5034031;28;20496;-65
2023/03/21 08:10:42;;;;;;;12.00;11.40;;;20.60;54.70;;;;;;5032947;28;20456;-65
2023/03/21 08:13:10;;;;;;;11.53;11.23;;;20.60;54.60;;;;;;5033037;28;20481;-65
2023/03/21 08:15:41;;;;;;;11.70;11.30;;;20.70;54.70;;;;;;5033495;28;20575;-65
2023/03/21 08:18:08;;;;;;;11.23;10.83;;;20.60;54.60;;;;;;5033718;28;20839;-65
2023/03/21 08:20:34;;;;;;;11.00;10.70;;;20.60;54.50;;;;;;5034046;28;20966;-65
2023/03/21 08:23:01;;;;;;;11.23;10.77;;;20.70;54.50;;;;;;5033583;28;20451;-65
2023/03/21 08:25:29;;;;;;;11.90;11.60;;;20.60;54.40;;;;;;5036884;28;20487;-65
2023/03/21 08:27:56;;;;;;;12.93;12.30;;;20.60;54.40;;;;;;5037416;28;20465;-65
2023/03/21 08:30:28;;;;;;;11.10;10.70;;;20.60;54.40;;;;;;5037734;28;20476;-65
2023/03/21 08:32:57;;;;;;;11.23;10.83;;;20.60;54.40;;;;;;5038001;28;20444;-65
2023/03/21 08:35:24;;;;;;;11.57;11.17;;;20.60;54.30;;;;;;5038180;28;20445;-65
2023/03/21 08:37:51;;;;;;;11.30;11.00;;;20.60;54.30;;;;;;5037662;28;20468;-65
2023/03/21 08:40:19;;;;;;;10.77;10.37;;;20.60;54.30;;;;;;5037799;28;20441;-65
2023/03/21 08:42:46;;;;;;;11.27;10.90;;;20.60;54.20;;;;;;5037958;28;20447;-65
2023/03/21 08:45:15;;;;;;;11.47;11.07;;;20.60;54.20;;;;;;5037305;28;20440;-65
2023/03/21 08:47:43;;;;;;;11.33;11.03;;;20.60;54.20;;;;;;5036610;28;20503;-65
2023/03/21 08:50:14;;;;;;;11.60;11.10;;;20.60;54.20;;;;;;5036964;28;20937;-65
2023/03/21 08:52:41;;;;;;;10.27;9.93;;;20.60;54.10;;;;;;5037105;28;20751;-65
2023/03/21 08:55:09;;;;;;;11.00;10.60;;;20.60;54.10;;;;;;5037224;28;20487;-65
2023/03/21 08:57:36;;;;;;;11.10;10.80;;;20.60;54.00;;;;;;5036673;28;20499;-65
2023/03/21 09:00:10;;;;;;;11.13;10.63;;;20.60;54.00;;;;;;5036527;28;20519;-65
2023/03/21 09:02:36;;;;;;;10.70;10.40;;;20.60;54.00;;;;;;5036750;28;20792;-65
2023/03/21 09:05:06;;;;;;;10.53;10.23;;;20.60;54.00;;;;;;5036898;28;20480;-65
2023/03/21 09:07:35;;;;;;;11.10;10.70;;;20.60;54.50;;;;;;5036755;28;20487;-65
2023/03/21 09:10:02;;;;;;;10.80;10.50;;;20.60;54.00;;;;;;5036777;28;20456;-65
2023/03/21 09:12:28;;;;;;;11.63;11.23;;;20.60;53.90;;;;;;5037000;28;20481;-65
2023/03/21 09:14:55;;;;;;;10.70;10.50;;;20.60;53.90;;;;;;5036523;28;20480;-65
2023/03/21 09:17:23;;;;;;;11.10;10.80;;;20.60;53.90;;;;;;5036417;28;21016;-65
2023/03/21 09:19:50;;;;;;;10.93;10.70;;;20.60;53.90;;;;;;5036247;28;20527;-65
2023/03/21 09:22:22;;;;;;;11.50;11.10;;;20.60;53.80;;;;;;5036481;28;20453;-65
2023/03/21 09:24:49;;;;;;;11.80;11.03;;;20.60;53.80;;;;;;5035863;28;20455;-65
2023/03/21 09:27:21;;;;;;;10.40;10.20;;;20.50;53.70;;;;;;5035813;28;20826;-65
2023/03/21 09:29:48;;;;;;;11.47;11.07;;;20.60;53.70;;;;;;5035179;28;20443;-64
2023/03/21 09:32:17;;;;;;;11.13;10.83;;;20.50;53.70;;;;;;5034805;28;20507;-65
2023/03/21 09:34:44;;;;;;;11.47;11.07;;;20.50;53.70;;;;;;5034461;28;20934;-65
2023/03/21 09:37:12;;;;;;;11.07;10.67;;;20.60;53.70;;;;;;5034450;28;20519;-64
2023/03/21 09:39:41;;;;;;;11.20;10.90;;;20.50;53.60;;;;;;5034616;28;21016;-65
2023/03/21 09:42:20;;;;;;;10.90;10.60;;;20.50;53.60;;;;;;5034400;28;20449;-64
2023/03/21 09:45:00;;;;;;;11.37;11.00;;;20.50;53.60;;;;;;5034498;28;20481;-65
2023/03/21 09:47:33;;;;;;;12.70;12.37;;;20.50;53.60;;;;;;5034442;28;20552;-64
2023/03/21 09:50:07;;;;;;;12.50;12.10;;;20.50;53.60;;;;;;5034411;28;20885;-64
2023/03/21 09:52:46;;;;;;;11.53;11.23;;;20.50;53.60;;;;;;5034328;28;20499;-65
2023/03/21 09:55:20;;;;;;;11.80;11.47;;;20.50;53.60;;;;;;5034255;28;20452;-65
2023/03/21 09:57:50;;;;;;;11.60;11.30;;;20.50;53.60;;;;;;5033996;28;20484;-64
2023/03/21 10:00:24;;;;;;;11.53;11.23;;;20.50;53.60;;;;;;5034223;28;20528;-64
2023/03/21 10:02:58;;;;;;;11.30;11.00;;;20.50;53.60;;;;;;5034238;28;20449;-64
2023/03/21 10:05:27;;;;;;;11.90;11.40;;;20.50;53.60;;;;;;5033984;28;20865;-64
2023/03/21 10:07:58;;;;;;;11.27;10.77;;;20.50;53.60;;;;;;5033891;28;20461;-65
2023/03/21 10:10:30;;;;;;;11.97;11.67;;;20.50;53.60;;;;;;5034011;28;20814;-64
2023/03/21 10:12:57;;;;;;;12.47;12.17;;;20.50;53.60;;;;;;5034073;28;20450;-64
2023/03/21 10:15:26;;;;;;;12.30;12.00;;;20.50;53.60;;;;;;5033862;28;20986;-65
2023/03/21 10:17:58;;;;;;;12.60;12.20;;;20.60;53.70;;;;;;5033652;28;20519;-63
2023/03/21 10:20:26;;;;;;;12.00;11.70;;;20.50;53.50;;;;;;5033558;28;20554;-64
2023/03/21 10:22:55;;;;;;;12.00;11.60;;;20.50;53.50;;;;;;5033631;28;20520;-65
2023/03/21 10:25:28;;;;;;;11.93;11.63;;;20.60;53.60;;;;;;5033742;28;20535;-65
2023/03/21 10:27:55;;;;;;;10.90;10.60;;;20.60;53.50;;;;;;5033428;28;20500;-64
2023/03/21 10:30:41;;;;;;;11.83;11.43;;;20.60;53.50;;;;;;5033493;28;20527;-65
2023/03/21 10:33:13;;;;;;;11.97;11.57;;;20.60;53.50;;;;;;5033497;28;20449;-64
2023/03/21 10:35:45;;;;;;;11.70;11.40;;;20.60;53.50;;;;;;5033379;28;20441;-65
2023/03/21 10:38:16;;;;;;;11.47;11.10;;;20.60;53.50;;;;;;5033263;28;20548;-64
2023/03/21 10:40:44;;;;;;;11.97;11.67;;;20.50;53.40;;;;;;5033492;28;20472;-65
2023/03/21 10:43:30;;;;;;;11.20;10.90;;;20.60;53.50;;;;;;5033438;28;21124;-65
2023/03/21 10:45:57;;;;;;;11.10;10.90;;;20.60;53.50;;;;;;5033491;28;20496;-65
2023/03/21 10:48:24;;;;;;;11.20;10.90;;;20.60;53.40;;;;;;5032408;28;20908;-64
2023/03/21 10:50:54;;;;;;;11.23;10.93;;;20.60;53.40;;;;;;5033166;28;20528;-65
2023/03/21 10:53:27;;;;;;;11.70;11.40;;;20.50;53.40;;;;;;5033133;28;20531;-65
2023/03/21 10:55:59;;;;;;;11.30;11.00;;;20.60;53.40;;;;;;5033140;28;20973;-64
2023/03/21 10:58:28;;;;;;;11.50;11.20;;;20.60;53.40;;;;;;5032752;28;20508;-65
2023/03/21 11:00:57;;;;;;;11.80;11.50;;;20.50;53.30;;;;;;5032952;28;20533;-65
2023/03/21 11:03:30;;;;;;;11.50;11.20;;;20.50;53.30;;;;;;5032924;28;20471;-64
2023/03/21 11:06:01;;;;;;;11.27;11.07;;;20.50;53.30;;;;;;5032915;28;20453;-64
2023/03/21 11:08:29;;;;;;;12.07;11.77;;;20.50;53.30;;;;;;5032653;28;20468;-65
2023/03/21 11:11:02;;;;;;;11.60;11.30;;;20.50;53.20;;;;;;5032911;28;20537;-65
2023/03/21 11:13:37;;;;;;;12.23;11.93;;;20.50;53.20;;;;;;5032694;28;20441;-63
2023/03/21 11:16:10;;;;;;;12.10;11.80;;;20.50;53.20;;;;;;5032992;28;20448;-65
2023/03/21 11:18:41;;;;;;;12.10;11.70;;;20.50;53.20;;;;;;5032777;28;20466;-64
2023/03/21 11:21:11;;;;;;;11.70;11.40;;;20.50;53.20;;;;;;5032788;28;20536;-64
2023/03/21 11:23:45;;;;;;;12.10;11.70;;;20.60;53.30;;;;;;5032925;28;20429;-65
2023/03/21 11:26:22;;;;;;;11.63;11.33;;;20.60;53.20;;;;;;5032874;28;20448;-64
2023/03/21 11:28:51;;;;;;;12.10;11.70;;;20.60;53.20;;;;;;5032367;28;20440;-65
2023/03/21 11:31:18;;;;;;;11.60;11.30;;;20.50;53.10;;;;;;5032478;28;20535;-65
2023/03/21 11:33:51;;;;;;;12.00;11.70;;;20.50;53.10;;;;;;5032180;28;20533;-64
2023/03/21 11:36:37;;;;;;;11.93;11.57;;;20.50;53.10;;;;;;5032309;28;20823;-64
2023/03/21 11:39:15;;;;;;;12.30;12.00;;;20.50;53.10;;;;;;5032101;28;20481;-64
2023/03/21 11:41:50;;;;;;;11.90;11.60;;;20.50;53.10;;;;;;5032363;28;20476;-64
2023/03/21 11:44:28;;;;;;;11.87;11.57;;;20.50;53.10;;;;;;5032322;28;20484;-65
2023/03/21 11:46:55;;;;;;;11.40;11.13;;;20.50;53.10;;;;;;5032290;28;20496;-65
2023/03/21 11:49:23;;;;;;;11.60;11.30;;;20.50;53.10;;;;;;5032146;28;20540;-64
2023/03/21 11:52:02;;;;;;;11.73;11.43;;;20.50;53.10;;;;;;5032230;28;20524;-64
2023/03/21 11:54:35;;;;;;;11.87;11.53;;;20.50;53.10;;;;;;5032155;28;20476;-64
2023/03/21 11:57:09;;;;;;;11.50;11.10;;;20.50;53.00;;;;;;5031920;28;20508;-64
2023/03/21 11:59:44;;;;;;;11.50;11.20;;;20.50;53.00;;;;;;5031098;28;20920;-64
2023/03/21 12:02:53;;;;;;;11.30;11.00;;;20.50;53.10;;;;;;5031896;28;20495;-64
2023/03/21 12:05:26;;;;;;;11.43;11.10;;;20.50;53.00;;;;;;5003386;28;20874;-64
2023/03/21 12:08:02;;;;;;;11.30;11.00;;;20.50;53.00;;;;;;5031817;28;20576;-64
2023/03/21 12:10:33;;;;;;;11.40;11.10;;;20.50;53.00;;;;;;5031980;28;20437;-65
2023/03/21 12:13:20;;;;;;;11.60;11.30;;;20.50;53.10;;;;;;5031860;28;20437;-65
2023/03/21 12:15:54;;;;;;;11.53;11.23;;;20.50;53.10;;;;;;5031779;28;20525;-64
2023/03/21 12:18:37;;;;;;;11.60;11.30;;;20.50;53.10;;;;;;5031752;28;20539;-64
2023/03/21 12:21:11;;;;;;;12.30;11.93;;;20.50;53.10;;;;;;5031857;28;20563;-64
2023/03/21 12:23:55;;;;;;;11.33;11.07;;;20.50;53.20;;;;;;5031809;28;20485;-64
2023/03/21 12:26:26;;;;;;;11.20;10.90;;;20.50;53.10;;;;;;5032029;28;20476;-64
2023/03/21 12:29:24;;;;;;;11.20;10.90;;;20.50;53.10;;;;;;5031702;28;20452;-64
2023/03/21 12:32:05;;;;;;;11.40;11.10;;;20.50;53.10;;;;;;5031706;28;20453;-64
2023/03/21 12:35:10;;;;;;;10.90;10.63;;;20.50;53.10;;;;;;5031655;28;20445;-64
2023/03/21 12:37:44;;;;;;;11.23;10.93;;;20.50;53.10;;;;;;4970330;28;20566;-64
2023/03/21 12:40:22;;;;;;;11.33;11.03;;;20.50;53.10;;;;;;5020022;28;20892;-64
2023/03/21 12:43:21;;;;;;;11.37;11.10;;;20.50;53.10;;;;;;5031685;28;20515;-64
2023/03/21 12:45:55;;;;;;;11.20;11.00;;;20.50;53.10;;;;;;5031632;28;20455;-62
2023/03/21 12:48:27;;;;;;;11.97;11.67;;;20.60;53.10;;;;;;5031438;28;20471;-65
2023/03/21 12:50:57;;;;;;;12.03;11.73;;;20.50;53.10;;;;;;5031496;28;20477;-64